createdAt,value
2019-02-20T00:00:57.946Z,18.67
2019-02-20T00:06:05.053Z,17.00
2019-02-20T00:11:10.238Z,16.60
2019-02-20T00:16:15.427Z,19.03
2019-02-20T00:21:20.629Z,21.33
2019-02-20T00:26:26.054Z,15.33
2019-02-20T00:31:31.258Z,18.80
2019-02-20T00:36:36.479Z,21.23
2019-02-20T00:41:41.997Z,15.60
2019-02-20T00:46:56.029Z,17.97
2019-02-20T00:52:13.571Z,18.83
2019-02-20T00:57:19.143Z,18.37
2019-02-20T01:02:24.367Z,18.63
2019-02-20T01:07:30.273Z,18.83
2019-02-20T01:12:35.454Z,17.73
2019-02-20T01:17:40.648Z,19.73
2019-02-20T01:22:46.173Z,19.50
2019-02-20T01:27:51.374Z,16.20
2019-02-20T01:32:56.819Z,20.07
2019-02-20T01:38:02.088Z,17.87
2019-02-20T01:43:07.607Z,18.63
2019-02-20T01:48:12.791Z,18.63
2019-02-20T01:53:20.051Z,14.67
2019-02-20T01:58:25.225Z,18.73
2019-02-20T02:03:30.406Z,16.47
2019-02-20T02:08:35.760Z,18.63
2019-02-20T02:13:41.256Z,18.10
2019-02-20T02:18:46.818Z,17.63
2019-02-20T02:23:52.773Z,17.27
2019-02-20T02:28:58.279Z,18.73
2019-02-20T02:34:03.463Z,21.97
2019-02-20T02:39:09.351Z,20.07
2019-02-20T02:44:14.617Z,18.30
2019-02-20T02:49:20.242Z,18.47
2019-02-20T02:54:25.839Z,20.57
2019-02-20T02:59:31.357Z,19.33
2019-02-20T03:04:36.541Z,20.47
2019-02-20T03:09:42.156Z,17.30
2019-02-20T03:14:47.339Z,21.23
2019-02-20T03:19:52.550Z,18.70
2019-02-20T03:24:57.780Z,16.83
2019-02-20T03:30:03.304Z,18.20
2019-02-20T03:35:09.440Z,18.17
2019-02-20T03:40:14.660Z,21.30
2019-02-20T03:45:20.202Z,18.80
2019-02-20T03:50:26.526Z,19.20
2019-02-20T03:55:32.051Z,22.00
2019-02-20T04:00:38.076Z,18.07
2019-02-20T04:05:43.271Z,21.97
2019-02-20T04:10:48.457Z,20.53
2019-02-20T04:15:54.741Z,18.80
2019-02-20T04:20:59.951Z,22.27
2019-02-20T04:26:05.451Z,22.67
2019-02-20T04:31:10.538Z,21.20
2019-02-20T04:36:15.759Z,17.63
2019-02-20T04:41:21.365Z,20.67
2019-02-20T04:46:27.437Z,19.97
2019-02-20T04:51:33.326Z,24.03
2019-02-20T04:56:38.492Z,22.40
2019-02-20T05:01:43.595Z,19.50
2019-02-20T05:06:48.687Z,21.23
2019-02-20T05:11:54.201Z,22.80
2019-02-20T05:16:59.398Z,19.60
2019-02-20T05:22:04.618Z,19.07
2019-02-20T05:27:10.047Z,21.40
2019-02-20T05:32:15.243Z,20.23
2019-02-20T05:37:20.830Z,22.13
2019-02-20T05:42:26.847Z,23.57
2019-02-20T05:47:32.219Z,22.30
2019-02-20T05:52:38.510Z,24.40
2019-02-20T05:57:43.928Z,22.13
2019-02-20T06:02:48.932Z,19.53
2019-02-20T06:07:54.439Z,19.90
2019-02-20T06:13:00.219Z,21.77
2019-02-20T06:18:05.803Z,19.60
2019-02-20T06:23:11.325Z,20.03
2019-02-20T06:28:16.772Z,20.50
2019-02-20T06:33:22.286Z,24.20
2019-02-20T06:38:27.308Z,20.03
2019-02-20T06:43:32.700Z,21.70
2019-02-20T06:48:38.112Z,22.37
2019-02-20T06:53:43.015Z,24.53
2019-02-20T06:58:48.239Z,22.57
2019-02-20T07:03:53.330Z,25.63
2019-02-20T07:09:22.863Z,24.60
2019-02-20T07:14:58.018Z,21.10
2019-02-20T07:20:21.943Z,23.87
2019-02-20T07:26:05.706Z,20.23
2019-02-20T07:31:10.879Z,23.13
2019-02-20T07:36:16.038Z,22.07
2019-02-20T07:41:21.193Z,21.17
2019-02-20T07:46:26.428Z,21.40
2019-02-20T07:51:32.625Z,21.13
2019-02-20T07:56:37.703Z,23.57
2019-02-20T08:01:43.029Z,22.43
2019-02-20T08:06:48.126Z,19.73
2019-02-20T08:11:53.224Z,20.73
2019-02-20T08:16:58.362Z,22.93
2019-02-20T08:22:03.491Z,21.47
2019-02-20T08:27:09.278Z,19.55
2019-02-20T08:32:14.693Z,20.53
2019-02-20T08:37:20.218Z,19.30
2019-02-20T08:42:25.630Z,20.97
2019-02-20T08:47:31.097Z,27.97
2019-02-20T08:52:36.694Z,23.32
2019-02-20T08:57:42.019Z,22.97
2019-02-20T09:02:47.176Z,22.67
2019-02-20T09:07:52.186Z,21.83
2019-02-20T09:12:57.941Z,22.43
2019-02-20T09:18:03.464Z,27.93
2019-02-20T09:23:10.127Z,25.80
2019-02-20T09:28:16.988Z,28.97
2019-02-20T09:33:22.971Z,26.90
2019-02-20T09:38:28.142Z,21.00
2019-02-20T09:43:33.302Z,22.30
2019-02-20T09:48:38.548Z,18.05
2019-02-20T09:53:43.715Z,20.70
2019-02-20T09:58:49.018Z,21.25
2019-02-20T10:03:54.209Z,22.35
2019-02-20T10:08:59.966Z,20.12
2019-02-20T10:14:05.210Z,16.93
2019-02-20T10:19:11.504Z,17.17
2019-02-20T10:24:17.633Z,20.72
2019-02-20T10:29:23.484Z,19.40
2019-02-20T10:34:29.011Z,18.57
2019-02-20T10:39:34.097Z,19.37
2019-02-20T10:44:39.190Z,21.62
2019-02-20T10:49:44.485Z,19.73
2019-02-20T10:54:57.414Z,21.13
2019-02-20T10:59:56.644Z,20.75
2019-02-20T11:05:01.814Z,21.87
2019-02-20T11:10:07.564Z,17.48
2019-02-20T11:15:13.410Z,17.45
2019-02-20T11:20:18.910Z,15.33
2019-02-20T11:25:24.150Z,24.77
2019-02-20T11:30:29.385Z,16.45
2019-02-20T11:35:34.567Z,12.73
2019-02-20T11:40:41.130Z,8.83
2019-02-20T11:45:46.368Z,9.80
2019-02-20T11:50:52.566Z,10.30
2019-02-20T11:55:57.796Z,8.60
2019-02-20T12:01:04.002Z,11.80
2019-02-20T12:06:10.429Z,12.43
2019-02-20T12:11:15.875Z,10.85
2019-02-20T12:16:21.103Z,11.43
2019-02-20T12:21:26.289Z,13.43
2019-02-20T12:26:35.154Z,11.93
2019-02-20T12:31:38.470Z,15.40
2019-02-20T12:36:43.758Z,12.43
2019-02-20T12:41:49.189Z,15.18
2019-02-20T12:46:54.556Z,14.33
2019-02-20T12:52:00.178Z,11.65
2019-02-20T12:57:08.073Z,14.80
2019-02-20T13:02:13.385Z,13.95
2019-02-20T13:07:18.792Z,14.50
2019-02-20T13:12:23.963Z,15.98
2019-02-20T13:17:29.735Z,14.53
2019-02-20T13:22:35.298Z,12.60
2019-02-20T13:27:40.550Z,10.95
2019-02-20T13:32:47.169Z,14.90
2019-02-20T13:37:52.365Z,17.73
2019-02-20T13:42:57.455Z,17.65
2019-02-20T13:48:02.696Z,16.73
2019-02-20T13:53:07.929Z,14.20
2019-02-20T13:58:13.967Z,16.77
2019-02-20T14:03:19.548Z,18.95
2019-02-20T14:08:24.779Z,16.07
2019-02-20T14:13:29.905Z,13.40
2019-02-20T14:18:35.361Z,14.25
2019-02-20T14:23:40.535Z,15.48
2019-02-20T14:28:45.963Z,15.95
2019-02-20T14:33:51.933Z,13.62
2019-02-20T14:38:57.376Z,13.03
2019-02-20T14:44:02.607Z,15.28
2019-02-20T14:49:09.480Z,13.05
2019-02-20T14:54:15.133Z,17.90
2019-02-20T14:59:20.355Z,17.48
2019-02-20T15:04:27.113Z,15.43
2019-02-20T15:09:32.677Z,17.30
2019-02-20T15:14:38.691Z,17.05
2019-02-20T15:19:45.124Z,19.10
2019-02-20T15:24:50.862Z,19.87
2019-02-20T15:29:56.715Z,15.83
2019-02-20T15:35:01.885Z,17.10
2019-02-20T15:40:08.304Z,15.88
2019-02-20T15:45:13.750Z,17.48
2019-02-20T15:50:18.981Z,19.55
2019-02-20T15:55:24.507Z,19.17
2019-02-20T16:00:29.769Z,15.88
2019-02-20T16:05:35.549Z,19.80
2019-02-20T16:10:40.789Z,18.52
2019-02-20T16:15:45.966Z,18.27
2019-02-20T16:20:51.232Z,21.33
2019-02-20T16:25:56.742Z,23.20
2019-02-20T16:31:02.170Z,20.65
2019-02-20T16:36:07.396Z,20.37
2019-02-20T16:41:13.401Z,15.80
2019-02-20T16:46:19.663Z,16.73
2019-02-20T16:51:24.914Z,18.62
2019-02-20T16:56:30.157Z,21.68
2019-02-20T17:01:35.954Z,15.10
2019-02-20T17:06:41.310Z,14.43
2019-02-20T17:11:46.804Z,16.60
2019-02-20T17:16:52.199Z,19.70
2019-02-20T17:21:58.213Z,14.38
2019-02-20T17:27:03.444Z,15.00
2019-02-20T17:32:08.785Z,15.38
2019-02-20T17:37:14.339Z,15.83
2019-02-20T17:42:19.847Z,15.80
2019-02-20T17:47:25.091Z,20.48
2019-02-20T17:52:30.267Z,20.05
2019-02-20T17:57:35.504Z,19.70
2019-02-20T18:02:40.830Z,17.20
2019-02-20T18:07:49.725Z,22.15
2019-02-20T18:12:52.959Z,19.70
2019-02-20T18:17:58.127Z,22.40
2019-02-20T18:23:03.455Z,20.12
2019-02-20T18:28:08.701Z,22.32
2019-02-20T18:33:13.879Z,19.20
2019-02-20T18:38:20.672Z,20.97
2019-02-20T18:43:27.572Z,21.70
2019-02-20T18:48:33.702Z,20.15
2019-02-20T18:53:39.203Z,19.95
2019-02-20T18:58:45.392Z,20.90
2019-02-20T19:03:51.664Z,22.65
2019-02-20T19:09:07.046Z,22.90
2019-02-20T19:14:19.707Z,23.27
2019-02-20T19:20:18.209Z,21.30
2019-02-20T19:26:08.353Z,20.53
2019-02-20T19:32:21.303Z,21.20
2019-02-20T19:37:47.742Z,26.90
2019-02-20T19:43:27.507Z,23.20
2019-02-20T19:48:59.009Z,22.48
2019-02-20T19:54:37.957Z,19.75
2019-02-20T20:00:09.945Z,20.02
2019-02-20T20:06:23.606Z,20.85
2019-02-20T20:12:27.186Z,25.68
2019-02-20T20:17:55.401Z,23.75
2019-02-20T20:23:32.468Z,24.23
2019-02-20T20:29:06.174Z,22.37
2019-02-20T20:34:47.224Z,20.68
2019-02-20T20:40:33.634Z,24.87
2019-02-20T20:45:48.931Z,24.30
2019-02-20T20:51:30.137Z,25.97
2019-02-20T20:57:04.982Z,26.07
2019-02-20T21:02:27.131Z,24.72
2019-02-20T21:08:03.394Z,23.90
2019-02-20T21:13:31.762Z,24.92
2019-02-20T21:19:21.553Z,23.27
2019-02-20T21:24:47.352Z,21.87
2019-02-20T21:29:59.252Z,26.60
2019-02-20T21:35:31.439Z,27.77
2019-02-20T21:40:55.006Z,25.20
2019-02-20T21:47:02.539Z,29.67
2019-02-20T21:53:04.097Z,24.53
2019-02-20T21:58:41.323Z,23.47
2019-02-20T22:04:33.472Z,23.13
2019-02-20T22:10:16.596Z,23.18
2019-02-20T22:15:59.963Z,21.80
2019-02-20T22:21:43.360Z,21.30
2019-02-20T22:27:29.281Z,24.77
2019-02-20T22:33:02.654Z,25.13
2019-02-20T22:38:56.349Z,25.97
2019-02-20T22:44:50.592Z,26.57
2019-02-20T22:50:48.256Z,24.90
2019-02-20T22:56:20.102Z,27.33
2019-02-20T23:01:51.851Z,26.27
2019-02-20T23:07:38.612Z,28.77
2019-02-20T23:13:22.377Z,28.93
2019-02-20T23:18:27.924Z,26.33
2019-02-20T23:23:33.869Z,28.43
2019-02-20T23:28:39.239Z,25.33
2019-02-20T23:33:45.117Z,25.93
2019-02-20T23:38:51.098Z,24.10
2019-02-20T23:43:56.592Z,28.70
2019-02-20T23:49:02.063Z,22.23
2019-02-20T23:54:07.909Z,26.07
2019-02-20T23:59:14.318Z,24.47
